sensor_id;sensor_type;location;lat;lon;timestamp;P1;durP1;ratioP1;P2;durP2;ratioP2
42586;SDS011;28216;53.362;-6.288;2022-11-20T00:01:24;11.43;;;3.13;;
42586;SDS011;28216;53.362;-6.288;2022-11-20T00:03:51;11.23;;;3.00;;
42586;SDS011;28216;53.362;-6.288;2022-11-20T00:06:18;10.43;;;2.97;;
42586;SDS011;28216;53.362;-6.288;2022-11-20T00:08:45;14.05;;;3.17;;
42586;SDS011;28216;53.362;-6.288;2022-11-20T00:13:39;17.38;;;3.90;;
42586;SDS011;28216;53.362;-6.288;2022-11-20T00:16:05;12.77;;;3.30;;
42586;SDS011;28216;53.362;-6.288;2022-11-20T00:18:34;15.50;;;3.88;;
42586;SDS011;28216;53.362;-6.288;2022-11-20T00:21:03;10.30;;;3.15;;
42586;SDS011;28216;53.362;-6.288;2022-11-20T00:23:31;15.75;;;3.38;;
42586;SDS011;28216;53.362;-6.288;2022-11-20T00:25:56;16.55;;;3.47;;
42586;SDS011;28216;53.362;-6.288;2022-11-20T00:28:27;15.13;;;3.67;;
42586;SDS011;28216;53.362;-6.288;2022-11-20T00:30:54;16.67;;;5.80;;
42586;SDS011;28216;53.362;-6.288;2022-11-20T00:33:25;14.77;;;3.83;;
42586;SDS011;28216;53.362;-6.288;2022-11-20T00:35:51;16.30;;;4.20;;
42586;SDS011;28216;53.362;-6.288;2022-11-20T00:38:16;18.35;;;4.53;;
42586;SDS011;28216;53.362;-6.288;2022-11-20T00:40:42;18.55;;;4.03;;
42586;SDS011;28216;53.362;-6.288;2022-11-20T00:43:07;20.48;;;4.10;;
42586;SDS011;28216;53.362;-6.288;2022-11-20T00:45:32;13.45;;;4.03;;
42586;SDS011;28216;53.362;-6.288;2022-11-20T00:47:58;13.18;;;4.00;;
42586;SDS011;28216;53.362;-6.288;2022-11-20T00:50:23;17.80;;;4.30;;
42586;SDS011;28216;53.362;-6.288;2022-11-20T00:52:49;17.50;;;4.20;;
42586;SDS011;28216;53.362;-6.288;2022-11-20T00:55:14;15.23;;;4.22;;
42586;SDS011;28216;53.362;-6.288;2022-11-20T00:57:40;17.77;;;4.43;;
42586;SDS011;28216;53.362;-6.288;2022-11-20T01:00:05;18.30;;;4.05;;
42586;SDS011;28216;53.362;-6.288;2022-11-20T01:02:31;14.38;;;3.50;;
42586;SDS011;28216;53.362;-6.288;2022-11-20T01:04:57;17.35;;;4.03;;
42586;SDS011;28216;53.362;-6.288;2022-11-20T01:07:22;20.58;;;4.05;;
42586;SDS011;28216;53.362;-6.288;2022-11-20T01:09:47;24.25;;;4.75;;
42586;SDS011;28216;53.362;-6.288;2022-11-20T01:12:13;18.52;;;4.57;;
42586;SDS011;28216;53.362;-6.288;2022-11-20T01:14:38;25.17;;;4.22;;
42586;SDS011;28216;53.362;-6.288;2022-11-20T01:17:04;18.08;;;4.05;;
42586;SDS011;28216;53.362;-6.288;2022-11-20T01:19:29;15.63;;;4.18;;
42586;SDS011;28216;53.362;-6.288;2022-11-20T01:21:55;22.42;;;4.55;;
42586;SDS011;28216;53.362;-6.288;2022-11-20T01:24:20;22.33;;;4.10;;
42586;SDS011;28216;53.362;-6.288;2022-11-20T01:26:47;21.85;;;4.13;;
42586;SDS011;28216;53.362;-6.288;2022-11-20T01:29:16;21.40;;;4.18;;
42586;SDS011;28216;53.362;-6.288;2022-11-20T01:31:44;22.48;;;4.05;;
42586;SDS011;28216;53.362;-6.288;2022-11-20T01:34:11;21.30;;;4.30;;
42586;SDS011;28216;53.362;-6.288;2022-11-20T01:36:41;25.15;;;4.05;;
42586;SDS011;28216;53.362;-6.288;2022-11-20T01:39:11;27.23;;;4.45;;
42586;SDS011;28216;53.362;-6.288;2022-11-20T01:41:38;25.38;;;4.15;;
42586;SDS011;28216;53.362;-6.288;2022-11-20T01:44:42;26.20;;;4.45;;
42586;SDS011;28216;53.362;-6.288;2022-11-20T01:47:16;27.35;;;4.40;;
42586;SDS011;28216;53.362;-6.288;2022-11-20T01:49:51;21.48;;;4.55;;
42586;SDS011;28216;53.362;-6.288;2022-11-20T01:52:26;25.98;;;4.00;;
42586;SDS011;28216;53.362;-6.288;2022-11-20T01:55:02;25.95;;;4.63;;
42586;SDS011;28216;53.362;-6.288;2022-11-20T01:57:32;21.48;;;4.35;;
42586;SDS011;28216;53.362;-6.288;2022-11-20T02:00:06;25.17;;;3.92;;
42586;SDS011;28216;53.362;-6.288;2022-11-20T02:02:34;25.77;;;4.38;;
42586;SDS011;28216;53.362;-6.288;2022-11-20T02:05:03;27.88;;;4.47;;
42586;SDS011;28216;53.362;-6.288;2022-11-20T02:07:37;26.63;;;4.95;;
42586;SDS011;28216;53.362;-6.288;2022-11-20T02:10:03;30.55;;;5.00;;
42586;SDS011;28216;53.362;-6.288;2022-11-20T02:12:29;25.40;;;4.90;;
42586;SDS011;28216;53.362;-6.288;2022-11-20T02:15:12;30.80;;;5.43;;
42586;SDS011;28216;53.362;-6.288;2022-11-20T02:17:38;25.08;;;4.75;;
42586;SDS011;28216;53.362;-6.288;2022-11-20T02:20:03;27.20;;;4.72;;
42586;SDS011;28216;53.362;-6.288;2022-11-20T02:22:42;26.73;;;4.40;;
42586;SDS011;28216;53.362;-6.288;2022-11-20T02:25:22;24.08;;;4.25;;
42586;SDS011;28216;53.362;-6.288;2022-11-20T02:27:50;28.77;;;5.00;;
42586;SDS011;28216;53.362;-6.288;2022-11-20T02:30:16;28.00;;;5.30;;
42586;SDS011;28216;53.362;-6.288;2022-11-20T02:32:41;24.50;;;4.63;;
42586;SDS011;28216;53.362;-6.288;2022-11-20T02:37:46;26.10;;;5.05;;
42586;SDS011;28216;53.362;-6.288;2022-11-20T02:40:14;31.77;;;5.07;;
42586;SDS011;28216;53.362;-6.288;2022-11-20T02:42:39;27.65;;;4.25;;
42586;SDS011;28216;53.362;-6.288;2022-11-20T02:45:05;23.98;;;4.28;;
42586;SDS011;28216;53.362;-6.288;2022-11-20T02:47:31;25.92;;;5.03;;
42586;SDS011;28216;53.362;-6.288;2022-11-20T02:49:57;23.85;;;4.38;;
42586;SDS011;28216;53.362;-6.288;2022-11-20T02:52:23;27.52;;;5.05;;
42586;SDS011;28216;53.362;-6.288;2022-11-20T02:54:48;32.80;;;5.18;;
42586;SDS011;28216;53.362;-6.288;2022-11-20T02:57:14;17.65;;;4.28;;
42586;SDS011;28216;53.362;-6.288;2022-11-20T02:59:39;20.02;;;4.22;;
42586;SDS011;28216;53.362;-6.288;2022-11-20T03:02:05;22.58;;;4.63;;
42586;SDS011;28216;53.362;-6.288;2022-11-20T03:04:31;24.23;;;4.65;;
42586;SDS011;28216;53.362;-6.288;2022-11-20T03:06:56;21.25;;;4.18;;
42586;SDS011;28216;53.362;-6.288;2022-11-20T03:09:21;15.35;;;3.30;;
42586;SDS011;28216;53.362;-6.288;2022-11-20T03:11:47;20.25;;;3.90;;
42586;SDS011;28216;53.362;-6.288;2022-11-20T03:14:12;22.48;;;4.10;;
42586;SDS011;28216;53.362;-6.288;2022-11-20T03:16:39;15.07;;;3.80;;
42586;SDS011;28216;53.362;-6.288;2022-11-20T03:19:04;17.27;;;3.90;;
42586;SDS011;28216;53.362;-6.288;2022-11-20T03:21:30;21.33;;;4.20;;
42586;SDS011;28216;53.362;-6.288;2022-11-20T03:23:57;18.15;;;3.72;;
42586;SDS011;28216;53.362;-6.288;2022-11-20T03:26:23;20.02;;;4.95;;
42586;SDS011;28216;53.362;-6.288;2022-11-20T03:28:54;22.05;;;4.38;;
42586;SDS011;28216;53.362;-6.288;2022-11-20T03:31:22;13.43;;;3.20;;
42586;SDS011;28216;53.362;-6.288;2022-11-20T03:33:59;14.43;;;3.38;;
42586;SDS011;28216;53.362;-6.288;2022-11-20T03:36:26;13.80;;;2.90;;
42586;SDS011;28216;53.362;-6.288;2022-11-20T03:38:55;15.80;;;3.15;;
42586;SDS011;28216;53.362;-6.288;2022-11-20T03:41:26;14.10;;;3.20;;
42586;SDS011;28216;53.362;-6.288;2022-11-20T03:46:29;16.67;;;3.22;;
42586;SDS011;28216;53.362;-6.288;2022-11-20T03:48:55;17.40;;;3.25;;
42586;SDS011;28216;53.362;-6.288;2022-11-20T03:51:42;14.27;;;2.80;;
42586;SDS011;28216;53.362;-6.288;2022-11-20T03:54:07;13.57;;;3.00;;
42586;SDS011;28216;53.362;-6.288;2022-11-20T03:56:36;17.23;;;3.38;;
42586;SDS011;28216;53.362;-6.288;2022-11-20T03:59:04;16.20;;;3.22;;
42586;SDS011;28216;53.362;-6.288;2022-11-20T04:01:31;17.05;;;2.72;;
42586;SDS011;28216;53.362;-6.288;2022-11-20T04:03:58;14.82;;;2.72;;
42586;SDS011;28216;53.362;-6.288;2022-11-20T04:06:25;13.60;;;2.78;;
42586;SDS011;28216;53.362;-6.288;2022-11-20T04:08:56;14.35;;;2.22;;
42586;SDS011;28216;53.362;-6.288;2022-11-20T04:11:23;18.35;;;3.25;;
42586;SDS011;28216;53.362;-6.288;2022-11-20T04:13:51;16.48;;;2.97;;
42586;SDS011;28216;53.362;-6.288;2022-11-20T04:16:18;17.95;;;3.28;;
42586;SDS011;28216;53.362;-6.288;2022-11-20T04:18:44;13.85;;;2.78;;
42586;SDS011;28216;53.362;-6.288;2022-11-20T04:21:10;15.90;;;2.80;;
42586;SDS011;28216;53.362;-6.288;2022-11-20T04:23:36;14.65;;;2.85;;
42586;SDS011;28216;53.362;-6.288;2022-11-20T04:26:11;15.43;;;3.42;;
42586;SDS011;28216;53.362;-6.288;2022-11-20T04:28:38;17.80;;;2.75;;
42586;SDS011;28216;53.362;-6.288;2022-11-20T04:31:11;15.38;;;3.13;;
42586;SDS011;28216;53.362;-6.288;2022-11-20T04:33:39;16.48;;;3.25;;
42586;SDS011;28216;53.362;-6.288;2022-11-20T04:36:16;14.98;;;2.90;;
42586;SDS011;28216;53.362;-6.288;2022-11-20T04:38:42;16.58;;;2.90;;
42586;SDS011;28216;53.362;-6.288;2022-11-20T04:41:16;22.02;;;3.50;;
42586;SDS011;28216;53.362;-6.288;2022-11-20T04:43:46;17.58;;;3.17;;
42586;SDS011;28216;53.362;-6.288;2022-11-20T04:46:13;24.88;;;3.50;;
42586;SDS011;28216;53.362;-6.288;2022-11-20T04:48:39;25.20;;;3.55;;
42586;SDS011;28216;53.362;-6.288;2022-11-20T04:51:04;22.42;;;3.40;;
42586;SDS011;28216;53.362;-6.288;2022-11-20T04:53:30;20.23;;;3.42;;
42586;SDS011;28216;53.362;-6.288;2022-11-20T04:56:03;22.13;;;3.58;;
42586;SDS011;28216;53.362;-6.288;2022-11-20T04:58:33;18.77;;;3.58;;
42586;SDS011;28216;53.362;-6.288;2022-11-20T05:01:02;23.77;;;3.55;;
42586;SDS011;28216;53.362;-6.288;2022-11-20T05:03:34;20.70;;;3.43;;
42586;SDS011;28216;53.362;-6.288;2022-11-20T05:06:00;15.50;;;3.03;;
42586;SDS011;28216;53.362;-6.288;2022-11-20T05:08:29;19.70;;;3.63;;
42586;SDS011;28216;53.362;-6.288;2022-11-20T05:11:02;19.20;;;4.18;;
42586;SDS011;28216;53.362;-6.288;2022-11-20T05:13:29;17.38;;;3.40;;
42586;SDS011;28216;53.362;-6.288;2022-11-20T05:15:55;16.73;;;3.00;;
42586;SDS011;28216;53.362;-6.288;2022-11-20T05:18:25;15.07;;;3.40;;
42586;SDS011;28216;53.362;-6.288;2022-11-20T05:20:54;14.25;;;2.80;;
42586;SDS011;28216;53.362;-6.288;2022-11-20T05:23:21;17.42;;;3.22;;
42586;SDS011;28216;53.362;-6.288;2022-11-20T05:25:46;18.67;;;3.00;;
42586;SDS011;28216;53.362;-6.288;2022-11-20T05:28:12;19.38;;;3.47;;
42586;SDS011;28216;53.362;-6.288;2022-11-20T05:30:37;20.58;;;3.47;;
42586;SDS011;28216;53.362;-6.288;2022-11-20T05:33:03;17.65;;;3.40;;
42586;SDS011;28216;53.362;-6.288;2022-11-20T05:35:28;19.90;;;3.55;;
42586;SDS011;28216;53.362;-6.288;2022-11-20T05:37:53;18.27;;;3.95;;
42586;SDS011;28216;53.362;-6.288;2022-11-20T05:40:19;18.55;;;3.53;;
42586;SDS011;28216;53.362;-6.288;2022-11-20T05:42:44;19.08;;;3.13;;
42586;SDS011;28216;53.362;-6.288;2022-11-20T05:45:10;19.70;;;3.45;;
42586;SDS011;28216;53.362;-6.288;2022-11-20T05:47:35;12.73;;;2.70;;
42586;SDS011;28216;53.362;-6.288;2022-11-20T05:50:01;19.88;;;3.50;;
42586;SDS011;28216;53.362;-6.288;2022-11-20T05:52:29;17.08;;;2.30;;
42586;SDS011;28216;53.362;-6.288;2022-11-20T05:54:55;17.17;;;3.13;;
42586;SDS011;28216;53.362;-6.288;2022-11-20T05:57:21;11.77;;;2.42;;
42586;SDS011;28216;53.362;-6.288;2022-11-20T05:59:46;15.68;;;2.70;;
42586;SDS011;28216;53.362;-6.288;2022-11-20T06:02:12;16.80;;;2.90;;
42586;SDS011;28216;53.362;-6.288;2022-11-20T06:04:37;13.27;;;2.45;;
42586;SDS011;28216;53.362;-6.288;2022-11-20T06:07:04;15.63;;;2.72;;
42586;SDS011;28216;53.362;-6.288;2022-11-20T06:09:30;13.85;;;2.83;;
42586;SDS011;28216;53.362;-6.288;2022-11-20T06:11:55;13.48;;;2.95;;
42586;SDS011;28216;53.362;-6.288;2022-11-20T06:14:21;12.45;;;2.15;;
42586;SDS011;28216;53.362;-6.288;2022-11-20T06:16:46;17.00;;;2.88;;
42586;SDS011;28216;53.362;-6.288;2022-11-20T06:19:12;16.45;;;2.67;;
42586;SDS011;28216;53.362;-6.288;2022-11-20T06:21:37;11.43;;;2.40;;
42586;SDS011;28216;53.362;-6.288;2022-11-20T06:24:03;12.80;;;2.45;;
42586;SDS011;28216;53.362;-6.288;2022-11-20T06:26:29;15.23;;;3.05;;
42586;SDS011;28216;53.362;-6.288;2022-11-20T06:28:55;16.58;;;2.60;;
42586;SDS011;28216;53.362;-6.288;2022-11-20T06:31:21;12.68;;;2.40;;
42586;SDS011;28216;53.362;-6.288;2022-11-20T06:33:49;11.30;;;2.65;;
42586;SDS011;28216;53.362;-6.288;2022-11-20T06:36:15;13.90;;;2.40;;
42586;SDS011;28216;53.362;-6.288;2022-11-20T06:38:42;14.50;;;2.58;;
42586;SDS011;28216;53.362;-6.288;2022-11-20T06:41:12;11.13;;;2.25;;
42586;SDS011;28216;53.362;-6.288;2022-11-20T06:43:40;9.65;;;2.22;;
42586;SDS011;28216;53.362;-6.288;2022-11-20T06:46:05;13.15;;;2.50;;
42586;SDS011;28216;53.362;-6.288;2022-11-20T06:48:31;13.93;;;2.30;;
42586;SDS011;28216;53.362;-6.288;2022-11-20T06:50:57;15.68;;;2.88;;
42586;SDS011;28216;53.362;-6.288;2022-11-20T06:53:22;14.18;;;2.47;;
42586;SDS011;28216;53.362;-6.288;2022-11-20T06:55:49;11.02;;;2.40;;
42586;SDS011;28216;53.362;-6.288;2022-11-20T06:58:15;13.75;;;2.25;;
42586;SDS011;28216;53.362;-6.288;2022-11-20T07:00:41;10.98;;;2.10;;
42586;SDS011;28216;53.362;-6.288;2022-11-20T07:03:08;10.05;;;2.42;;
42586;SDS011;28216;53.362;-6.288;2022-11-20T07:05:35;10.80;;;2.53;;
42586;SDS011;28216;53.362;-6.288;2022-11-20T07:08:02;12.75;;;2.78;;
42586;SDS011;28216;53.362;-6.288;2022-11-20T07:10:28;15.50;;;2.83;;
42586;SDS011;28216;53.362;-6.288;2022-11-20T07:12:54;15.13;;;2.40;;
42586;SDS011;28216;53.362;-6.288;2022-11-20T07:15:20;13.93;;;2.47;;
42586;SDS011;28216;53.362;-6.288;2022-11-20T07:17:47;13.13;;;2.60;;
42586;SDS011;28216;53.362;-6.288;2022-11-20T07:20:13;18.05;;;2.50;;
42586;SDS011;28216;53.362;-6.288;2022-11-20T07:22:39;14.15;;;2.70;;
42586;SDS011;28216;53.362;-6.288;2022-11-20T07:25:05;18.00;;;2.60;;
42586;SDS011;28216;53.362;-6.288;2022-11-20T07:27:31;13.60;;;2.55;;
42586;SDS011;28216;53.362;-6.288;2022-11-20T07:29:57;14.45;;;2.85;;
42586;SDS011;28216;53.362;-6.288;2022-11-20T07:32:22;17.92;;;2.72;;
42586;SDS011;28216;53.362;-6.288;2022-11-20T07:34:48;14.68;;;2.50;;
42586;SDS011;28216;53.362;-6.288;2022-11-20T07:37:14;15.82;;;2.50;;
42586;SDS011;28216;53.362;-6.288;2022-11-20T07:39:40;13.30;;;2.97;;
42586;SDS011;28216;53.362;-6.288;2022-11-20T07:42:05;16.85;;;2.78;;
42586;SDS011;28216;53.362;-6.288;2022-11-20T07:44:31;14.48;;;2.70;;
42586;SDS011;28216;53.362;-6.288;2022-11-20T07:46:57;14.85;;;3.10;;
42586;SDS011;28216;53.362;-6.288;2022-11-20T07:49:22;14.95;;;2.75;;
42586;SDS011;28216;53.362;-6.288;2022-11-20T07:51:49;16.80;;;3.22;;
42586;SDS011;28216;53.362;-6.288;2022-11-20T07:54:16;16.63;;;2.70;;
42586;SDS011;28216;53.362;-6.288;2022-11-20T07:56:41;16.60;;;2.88;;
42586;SDS011;28216;53.362;-6.288;2022-11-20T07:59:07;17.90;;;2.90;;
42586;SDS011;28216;53.362;-6.288;2022-11-20T08:01:32;16.15;;;2.75;;
42586;SDS011;28216;53.362;-6.288;2022-11-20T08:03:58;17.13;;;3.25;;
42586;SDS011;28216;53.362;-6.288;2022-11-20T08:06:23;15.38;;;2.72;;
42586;SDS011;28216;53.362;-6.288;2022-11-20T08:08:49;15.68;;;2.55;;
42586;SDS011;28216;53.362;-6.288;2022-11-20T08:11:16;15.68;;;2.55;;
42586;SDS011;28216;53.362;-6.288;2022-11-20T08:13:59;18.23;;;2.80;;
42586;SDS011;28216;53.362;-6.288;2022-11-20T08:16:43;20.70;;;2.83;;
42586;SDS011;28216;53.362;-6.288;2022-11-20T08:19:11;15.32;;;2.72;;
42586;SDS011;28216;53.362;-6.288;2022-11-20T08:21:38;18.98;;;3.30;;
42586;SDS011;28216;53.362;-6.288;2022-11-20T08:24:07;20.65;;;2.88;;
42586;SDS011;28216;53.362;-6.288;2022-11-20T08:26:34;21.30;;;3.55;;
42586;SDS011;28216;53.362;-6.288;2022-11-20T08:29:02;20.05;;;3.13;;
42586;SDS011;28216;53.362;-6.288;2022-11-20T08:31:27;16.15;;;2.80;;
42586;SDS011;28216;53.362;-6.288;2022-11-20T08:33:53;17.48;;;3.15;;
42586;SDS011;28216;53.362;-6.288;2022-11-20T08:36:20;18.95;;;2.97;;
42586;SDS011;28216;53.362;-6.288;2022-11-20T08:38:50;16.60;;;3.25;;
42586;SDS011;28216;53.362;-6.288;2022-11-20T08:41:17;18.42;;;3.08;;
42586;SDS011;28216;53.362;-6.288;2022-11-20T08:43:49;18.58;;;2.67;;
42586;SDS011;28216;53.362;-6.288;2022-11-20T08:46:16;21.33;;;3.72;;
42586;SDS011;28216;53.362;-6.288;2022-11-20T08:48:42;18.95;;;3.05;;
42586;SDS011;28216;53.362;-6.288;2022-11-20T08:51:08;16.60;;;2.90;;
42586;SDS011;28216;53.362;-6.288;2022-11-20T08:53:34;13.27;;;2.63;;
42586;SDS011;28216;53.362;-6.288;2022-11-20T08:55:59;15.30;;;2.35;;
42586;SDS011;28216;53.362;-6.288;2022-11-20T08:58:26;12.05;;;3.30;;
42586;SDS011;28216;53.362;-6.288;2022-11-20T09:00:54;14.13;;;2.50;;
42586;SDS011;28216;53.362;-6.288;2022-11-20T09:03:19;14.43;;;2.60;;
42586;SDS011;28216;53.362;-6.288;2022-11-20T09:05:46;11.52;;;2.35;;
42586;SDS011;28216;53.362;-6.288;2022-11-20T09:08:12;12.77;;;2.30;;
42586;SDS011;28216;53.362;-6.288;2022-11-20T09:10:38;11.07;;;2.08;;
42586;SDS011;28216;53.362;-6.288;2022-11-20T09:13:04;14.10;;;2.42;;
42586;SDS011;28216;53.362;-6.288;2022-11-20T09:15:34;16.55;;;3.97;;
42586;SDS011;28216;53.362;-6.288;2022-11-20T09:18:00;13.45;;;3.00;;
42586;SDS011;28216;53.362;-6.288;2022-11-20T09:20:30;10.02;;;2.10;;
42586;SDS011;28216;53.362;-6.288;2022-11-20T09:22:57;15.23;;;3.03;;
42586;SDS011;28216;53.362;-6.288;2022-11-20T09:25:23;13.27;;;3.13;;
42586;SDS011;28216;53.362;-6.288;2022-11-20T09:27:55;9.57;;;1.92;;
42586;SDS011;28216;53.362;-6.288;2022-11-20T09:30:22;12.20;;;2.40;;
42586;SDS011;28216;53.362;-6.288;2022-11-20T09:32:47;12.15;;;2.10;;
42586;SDS011;28216;53.362;-6.288;2022-11-20T09:35:13;18.48;;;2.33;;
42586;SDS011;28216;53.362;-6.288;2022-11-20T09:37:55;7.50;;;2.05;;
42586;SDS011;28216;53.362;-6.288;2022-11-20T09:40:23;10.80;;;2.03;;
42586;SDS011;28216;53.362;-6.288;2022-11-20T09:51:31;8.75;;;2.00;;
42586;SDS011;28216;53.362;-6.288;2022-11-20T09:54:23;9.43;;;1.70;;
42586;SDS011;28216;53.362;-6.288;2022-11-20T09:57:29;10.60;;;2.17;;
42586;SDS011;28216;53.362;-6.288;2022-11-20T09:59:50;6.05;;;1.70;;
42586;SDS011;28216;53.362;-6.288;2022-11-20T10:02:28;9.20;;;1.98;;
42586;SDS011;28216;53.362;-6.288;2022-11-20T10:13:48;7.57;;;1.73;;
42586;SDS011;28216;53.362;-6.288;2022-11-20T10:22:21;6.88;;;1.52;;
42586;SDS011;28216;53.362;-6.288;2022-11-20T10:24:55;5.70;;;1.75;;
42586;SDS011;28216;53.362;-6.288;2022-11-20T10:32:32;4.50;;;1.38;;
42586;SDS011;28216;53.362;-6.288;2022-11-20T10:37:37;5.47;;;1.55;;
42586;SDS011;28216;53.362;-6.288;2022-11-20T10:43:01;7.53;;;1.50;;
42586;SDS011;28216;53.362;-6.288;2022-11-20T10:48:20;4.47;;;1.38;;
42586;SDS011;28216;53.362;-6.288;2022-11-20T10:53:40;6.00;;;1.13;;
42586;SDS011;28216;53.362;-6.288;2022-11-20T11:01:40;2.42;;;1.00;;
42586;SDS011;28216;53.362;-6.288;2022-11-20T11:04:14;1.65;;;0.90;;
42586;SDS011;28216;53.362;-6.288;2022-11-20T11:07:10;3.92;;;1.00;;
42586;SDS011;28216;53.362;-6.288;2022-11-20T11:09:44;3.53;;;0.82;;
42586;SDS011;28216;53.362;-6.288;2022-11-20T11:12:16;2.50;;;0.98;;
42586;SDS011;28216;53.362;-6.288;2022-11-20T11:14:47;2.72;;;0.98;;
42586;SDS011;28216;53.362;-6.288;2022-11-20T11:17:27;2.88;;;0.88;;
42586;SDS011;28216;53.362;-6.288;2022-11-20T11:28:22;2.47;;;0.98;;
42586;SDS011;28216;53.362;-6.288;2022-11-20T11:30:50;1.20;;;0.80;;
42586;SDS011;28216;53.362;-6.288;2022-11-20T11:33:38;1.13;;;0.70;;
42586;SDS011;28216;53.362;-6.288;2022-11-20T11:36:04;1.50;;;0.70;;
42586;SDS011;28216;53.362;-6.288;2022-11-20T11:38:44;1.83;;;0.70;;
42586;SDS011;28216;53.362;-6.288;2022-11-20T11:41:15;4.07;;;0.77;;
42586;SDS011;28216;53.362;-6.288;2022-11-20T11:43:51;1.80;;;0.80;;
42586;SDS011;28216;53.362;-6.288;2022-11-20T11:46:37;2.30;;;0.70;;
42586;SDS011;28216;53.362;-6.288;2022-11-20T11:54:20;1.63;;;0.90;;
42586;SDS011;28216;53.362;-6.288;2022-11-20T11:56:49;1.95;;;1.00;;
42586;SDS011;28216;53.362;-6.288;2022-11-20T11:59:27;2.03;;;1.00;;
42586;SDS011;28216;53.362;-6.288;2022-11-20T12:02:01;1.10;;;0.82;;
42586;SDS011;28216;53.362;-6.288;2022-11-20T12:07:06;2.78;;;1.10;;
42586;SDS011;28216;53.362;-6.288;2022-11-20T12:09:43;2.67;;;0.90;;
42586;SDS011;28216;53.362;-6.288;2022-11-20T12:12:23;2.78;;;1.10;;
42586;SDS011;28216;53.362;-6.288;2022-11-20T12:14:52;1.95;;;0.88;;
42586;SDS011;28216;53.362;-6.288;2022-11-20T12:17:21;2.58;;;1.00;;
42586;SDS011;28216;53.362;-6.288;2022-11-20T12:19:46;1.88;;;1.02;;
42586;SDS011;28216;53.362;-6.288;2022-11-20T12:30:18;2.38;;;1.00;;
42586;SDS011;28216;53.362;-6.288;2022-11-20T12:42:28;6.13;;;1.58;;
42586;SDS011;28216;53.362;-6.288;2022-11-20T12:53:04;4.03;;;1.50;;
42586;SDS011;28216;53.362;-6.288;2022-11-20T13:06:46;3.70;;;1.27;;
42586;SDS011;28216;53.362;-6.288;2022-11-20T13:09:14;5.10;;;1.30;;
42586;SDS011;28216;53.362;-6.288;2022-11-20T13:12:03;5.10;;;1.45;;
42586;SDS011;28216;53.362;-6.288;2022-11-20T13:14:39;5.25;;;1.30;;
42586;SDS011;28216;53.362;-6.288;2022-11-20T13:20:06;3.97;;;1.30;;
42586;SDS011;28216;53.362;-6.288;2022-11-20T13:22:46;3.13;;;1.08;;
42586;SDS011;28216;53.362;-6.288;2022-11-20T13:25:27;5.95;;;1.55;;
42586;SDS011;28216;53.362;-6.288;2022-11-20T13:27:59;5.70;;;1.55;;
42586;SDS011;28216;53.362;-6.288;2022-11-20T13:30:28;6.32;;;1.73;;
42586;SDS011;28216;53.362;-6.288;2022-11-20T13:32:56;9.07;;;1.60;;
42586;SDS011;28216;53.362;-6.288;2022-11-20T13:43:23;6.47;;;1.90;;
42586;SDS011;28216;53.362;-6.288;2022-11-20T13:46:01;5.30;;;1.63;;
42586;SDS011;28216;53.362;-6.288;2022-11-20T13:48:31;5.97;;;1.60;;
42586;SDS011;28216;53.362;-6.288;2022-11-20T13:53:42;4.40;;;1.55;;
42586;SDS011;28216;53.362;-6.288;2022-11-20T14:01:34;6.38;;;1.77;;
42586;SDS011;28216;53.362;-6.288;2022-11-20T14:04:05;6.47;;;1.40;;
42586;SDS011;28216;53.362;-6.288;2022-11-20T14:06:38;2.50;;;1.30;;
42586;SDS011;28216;53.362;-6.288;2022-11-20T14:12:01;3.58;;;1.50;;
42586;SDS011;28216;53.362;-6.288;2022-11-20T14:14:32;4.22;;;1.20;;
42586;SDS011;28216;53.362;-6.288;2022-11-20T14:20:01;5.70;;;1.48;;
42586;SDS011;28216;53.362;-6.288;2022-11-20T14:22:53;6.93;;;1.70;;
42586;SDS011;28216;53.362;-6.288;2022-11-20T14:25:41;5.88;;;1.70;;
42586;SDS011;28216;53.362;-6.288;2022-11-20T14:28:11;7.95;;;1.85;;
42586;SDS011;28216;53.362;-6.288;2022-11-20T14:30:48;3.95;;;1.60;;
42586;SDS011;28216;53.362;-6.288;2022-11-20T14:33:18;6.45;;;1.65;;
42586;SDS011;28216;53.362;-6.288;2022-11-20T14:35:46;4.65;;;1.77;;
42586;SDS011;28216;53.362;-6.288;2022-11-20T14:38:28;6.13;;;1.95;;
42586;SDS011;28216;53.362;-6.288;2022-11-20T14:41:07;5.43;;;1.60;;
42586;SDS011;28216;53.362;-6.288;2022-11-20T14:43:51;8.23;;;2.13;;
42586;SDS011;28216;53.362;-6.288;2022-11-20T14:46:28;6.72;;;1.80;;
42586;SDS011;28216;53.362;-6.288;2022-11-20T14:48:57;9.88;;;1.92;;
42586;SDS011;28216;53.362;-6.288;2022-11-20T14:51:31;9.23;;;1.90;;
42586;SDS011;28216;53.362;-6.288;2022-11-20T14:54:18;9.75;;;2.38;;
42586;SDS011;28216;53.362;-6.288;2022-11-20T14:57:01;7.20;;;2.33;;
42586;SDS011;28216;53.362;-6.288;2022-11-20T14:59:32;7.72;;;1.90;;
42586;SDS011;28216;53.362;-6.288;2022-11-20T15:02:08;4.15;;;2.15;;
42586;SDS011;28216;53.362;-6.288;2022-11-20T15:04:48;5.20;;;1.80;;
42586;SDS011;28216;53.362;-6.288;2022-11-20T15:07:29;6.10;;;1.63;;
42586;SDS011;28216;53.362;-6.288;2022-11-20T15:10:11;3.22;;;1.27;;
42586;SDS011;28216;53.362;-6.288;2022-11-20T15:12:40;7.22;;;1.42;;
42586;SDS011;28216;53.362;-6.288;2022-11-20T15:15:19;8.68;;;1.67;;
42586;SDS011;28216;53.362;-6.288;2022-11-20T15:17:49;6.82;;;1.45;;
42586;SDS011;28216;53.362;-6.288;2022-11-20T15:20:16;5.32;;;1.60;;
42586;SDS011;28216;53.362;-6.288;2022-11-20T15:22:46;4.43;;;1.40;;
42586;SDS011;28216;53.362;-6.288;2022-11-20T15:25:16;5.25;;;1.60;;
42586;SDS011;28216;53.362;-6.288;2022-11-20T15:27:43;6.07;;;1.50;;
42586;SDS011;28216;53.362;-6.288;2022-11-20T15:30:14;5.78;;;1.48;;
42586;SDS011;28216;53.362;-6.288;2022-11-20T15:32:42;4.70;;;1.92;;
42586;SDS011;28216;53.362;-6.288;2022-11-20T15:35:09;6.53;;;1.75;;
42586;SDS011;28216;53.362;-6.288;2022-11-20T15:37:36;7.13;;;1.70;;
42586;SDS011;28216;53.362;-6.288;2022-11-20T15:40:02;6.68;;;2.00;;
42586;SDS011;28216;53.362;-6.288;2022-11-20T15:42:29;7.05;;;2.30;;
42586;SDS011;28216;53.362;-6.288;2022-11-20T15:44:55;4.47;;;2.17;;
42586;SDS011;28216;53.362;-6.288;2022-11-20T15:47:21;6.22;;;2.10;;
42586;SDS011;28216;53.362;-6.288;2022-11-20T15:49:53;4.13;;;1.77;;
42586;SDS011;28216;53.362;-6.288;2022-11-20T15:52:19;5.65;;;1.77;;
42586;SDS011;28216;53.362;-6.288;2022-11-20T15:54:44;4.22;;;2.08;;
42586;SDS011;28216;53.362;-6.288;2022-11-20T15:57:10;5.30;;;2.10;;
42586;SDS011;28216;53.362;-6.288;2022-11-20T15:59:45;7.00;;;2.35;;
42586;SDS011;28216;53.362;-6.288;2022-11-20T16:02:29;5.97;;;2.65;;
42586;SDS011;28216;53.362;-6.288;2022-11-20T16:04:55;5.10;;;2.58;;
42586;SDS011;28216;53.362;-6.288;2022-11-20T16:07:21;4.60;;;1.90;;
42586;SDS011;28216;53.362;-6.288;2022-11-20T16:09:46;3.75;;;1.77;;
42586;SDS011;28216;53.362;-6.288;2022-11-20T16:12:12;4.00;;;1.70;;
42586;SDS011;28216;53.362;-6.288;2022-11-20T16:14:57;4.30;;;2.10;;
42586;SDS011;28216;53.362;-6.288;2022-11-20T16:17:41;4.32;;;1.90;;
42586;SDS011;28216;53.362;-6.288;2022-11-20T16:20:12;5.53;;;1.92;;
42586;SDS011;28216;53.362;-6.288;2022-11-20T16:22:38;6.55;;;2.10;;
42586;SDS011;28216;53.362;-6.288;2022-11-20T16:25:03;3.88;;;1.77;;
42586;SDS011;28216;53.362;-6.288;2022-11-20T16:27:30;9.20;;;2.60;;
42586;SDS011;28216;53.362;-6.288;2022-11-20T16:29:55;8.65;;;3.13;;
42586;SDS011;28216;53.362;-6.288;2022-11-20T16:32:20;6.53;;;3.00;;
42586;SDS011;28216;53.362;-6.288;2022-11-20T16:34:46;7.97;;;3.15;;
42586;SDS011;28216;53.362;-6.288;2022-11-20T16:37:12;8.45;;;2.53;;
42586;SDS011;28216;53.362;-6.288;2022-11-20T16:39:38;7.07;;;2.60;;
42586;SDS011;28216;53.362;-6.288;2022-11-20T16:42:04;12.00;;;2.78;;
42586;SDS011;28216;53.362;-6.288;2022-11-20T16:44:30;7.90;;;2.95;;
42586;SDS011;28216;53.362;-6.288;2022-11-20T16:46:56;7.50;;;3.30;;
42586;SDS011;28216;53.362;-6.288;2022-11-20T16:49:22;9.65;;;3.40;;